Aérodrome :
LOGIN :

S'inscrire | Disclaimer

   EN    FR    IT 

 










Légende :    VFR   VFR Marginal   IFR   IFR Intensif   IFR Très Intensif
Visi : 
Plafond : 
>= 8 km
>= 3000ft
5 à 8 km
1000 à 3000 ft
1500m à 5 km
500 à 1000 ft
800 à 1500m
200 à 500 ft
< 800m
< 200 ft
Symboles :   Orages  Brouillard  Fortes neiges  Fortes précipitations  Vent > 20 kt
SIGMETs :   Divers  Orages  Givrage  Turbulence  Onde Orograph.  Cendres Volcan.







- Altitude de l'aérodrome : 489 ft
- Code IATA : GDN


EPGD - Gdansk

DERNIER METAR :
  • 222230Z 18005KT 3000 BR BKN004 M07/M08 Q1011

METARs EXPIRÉS :
  • 222200Z 18004KT 3000 BR SCT004 M07/M08 Q1011
  • 222130Z 17007KT 2600 BR FEW002 OVC003 M07/M08 Q1011
  • 222100Z 16006KT 1000 R29/1900N BR OVC002 M07/M07 Q1011
  • 222030Z 18009KT 2500 BR FEW002 OVC003 M06/M07 Q1011
  • 222000Z 18006KT 2500 BR OVC003 M06/M07 Q1011

TAF TAF EPGD
Valide du 22 à 18h jusqu'au 23 à 18h UTC


221730Z 2218/2318 17006KT 3000 BR BKN004
TEMPO 2218/2309 2000 BR
PROB40
TEMPO 2219/2308 1000 BR BKN002
BECMG 2309/2311 6000 BKN012
BECMG 2311/2312 11010KT SCT018
BECMG 2315/2317 3500 BR
Pas de NOTAMs connus pour ce terrain.



MET'MAP, la Météo Aéronautique d'un coup d'oeil ! - Copyright ORBIFLY Décembre 2007 - Disclaimer

ORBIFLY MET'MAP TEAM :

Programmation & Développement : Alexandra Zaïnal
Conception & Développement : Baudouin d'Aumeries
Co-Programmation & Développement : Marc-Olivier Méhu
Soutien technique & logistique : Manuel Goepfert

Contact : metmap@orbifly.com




SOURCES & CREDITS :

   NOAA